createdAt,value
2023-07-06T00:00:30.093Z,17.02
2023-07-06T00:01:30.179Z,17.01
2023-07-06T00:02:30.218Z,16.95
2023-07-06T00:03:30.230Z,16.86
2023-07-06T00:04:30.248Z,16.91
2023-07-06T00:05:30.225Z,16.95
2023-07-06T00:06:30.227Z,16.89
2023-07-06T00:07:30.237Z,16.91
2023-07-06T00:08:30.303Z,16.85
2023-07-06T00:09:30.288Z,16.88
2023-07-06T00:10:30.276Z,16.67
2023-07-06T00:11:30.297Z,16.72
2023-07-06T00:12:30.290Z,16.84
2023-07-06T00:13:30.364Z,16.85
2023-07-06T00:14:30.309Z,16.85
2023-07-06T00:15:30.318Z,16.63
2023-07-06T00:16:30.377Z,16.78
2023-07-06T00:17:30.418Z,16.74
2023-07-06T00:18:30.496Z,16.85
2023-07-06T00:19:30.552Z,16.84
2023-07-06T00:20:30.628Z,16.86
2023-07-06T00:21:30.602Z,16.75
2023-07-06T00:22:30.652Z,16.72
2023-07-06T00:23:30.735Z,16.70
2023-07-06T00:24:30.762Z,16.74
2023-07-06T00:25:30.844Z,16.13
2023-07-06T00:26:30.892Z,16.36
2023-07-06T00:27:30.948Z,16.26
2023-07-06T00:28:31.046Z,16.30
2023-07-06T00:29:31.080Z,16.20
2023-07-06T00:30:31.149Z,16.20
2023-07-06T00:31:31.240Z,16.08
2023-07-06T00:32:31.290Z,16.16
2023-07-06T00:33:31.262Z,16.22
2023-07-06T00:34:31.244Z,16.20
2023-07-06T00:35:31.278Z,16.04
2023-07-06T00:36:31.279Z,16.04
2023-07-06T00:37:31.287Z,15.87
2023-07-06T00:38:31.278Z,16.06
2023-07-06T00:39:31.277Z,15.56
2023-07-06T00:40:31.315Z,15.80
2023-07-06T00:41:31.311Z,15.82
2023-07-06T00:42:31.308Z,15.68
2023-07-06T00:43:31.329Z,15.81
2023-07-06T00:44:31.313Z,15.82
2023-07-06T00:45:31.337Z,15.92
2023-07-06T00:46:31.645Z,16.02
2023-07-06T00:47:31.394Z,15.95
2023-07-06T00:48:31.391Z,15.92
2023-07-06T00:49:31.362Z,15.75
2023-07-06T00:50:31.387Z,15.81
2023-07-06T00:51:31.393Z,15.71
2023-07-06T00:52:31.443Z,15.78
2023-07-06T00:53:31.463Z,15.77
2023-07-06T00:54:31.508Z,15.68
2023-07-06T00:55:31.587Z,15.56
2023-07-06T00:56:31.645Z,15.47
2023-07-06T00:57:31.718Z,15.62
2023-07-06T00:58:31.763Z,15.43
2023-07-06T00:59:31.783Z,15.34
2023-07-06T01:00:31.946Z,15.47
2023-07-06T01:01:31.985Z,15.58
2023-07-06T01:02:32.112Z,15.74
2023-07-06T01:03:32.236Z,15.67
2023-07-06T01:04:32.160Z,15.57
2023-07-06T01:05:32.280Z,15.56
2023-07-06T01:06:32.269Z,15.44
2023-07-06T01:07:32.305Z,15.33
2023-07-06T01:08:32.326Z,15.08
2023-07-06T01:09:32.328Z,15.44
2023-07-06T01:10:32.416Z,15.50
2023-07-06T01:11:32.363Z,15.49
2023-07-06T01:12:32.372Z,15.67
2023-07-06T01:13:32.404Z,15.68
2023-07-06T01:14:32.350Z,15.81
2023-07-06T01:15:32.431Z,15.62
2023-07-06T01:16:32.522Z,15.84
2023-07-06T01:17:32.425Z,15.81
2023-07-06T01:18:32.392Z,15.40
2023-07-06T01:19:32.398Z,15.60
2023-07-06T01:20:32.390Z,15.53
2023-07-06T01:21:32.400Z,15.54
2023-07-06T01:22:32.398Z,15.37
2023-07-06T01:23:32.433Z,15.34
2023-07-06T01:24:32.478Z,15.34
2023-07-06T01:25:32.528Z,15.37
2023-07-06T01:26:32.562Z,15.33
2023-07-06T01:27:32.589Z,15.37
2023-07-06T01:28:32.649Z,15.43
2023-07-06T01:29:32.707Z,15.30
2023-07-06T01:30:32.721Z,15.27
2023-07-06T01:31:32.849Z,15.25
2023-07-06T01:32:32.892Z,15.29
2023-07-06T01:33:32.924Z,15.36
2023-07-06T01:34:32.977Z,15.12
2023-07-06T01:35:33.044Z,15.26
2023-07-06T01:36:33.109Z,15.49
2023-07-06T01:37:33.204Z,15.43
2023-07-06T01:38:33.266Z,15.42
2023-07-06T01:39:33.312Z,15.58
2023-07-06T01:40:33.385Z,15.68
2023-07-06T01:41:33.465Z,15.58
2023-07-06T01:42:33.542Z,15.68
2023-07-06T01:43:33.521Z,15.80
2023-07-06T01:44:33.593Z,15.84
2023-07-06T01:45:33.600Z,15.85
2023-07-06T01:46:33.607Z,15.89
2023-07-06T01:47:33.652Z,15.85
2023-07-06T01:48:33.697Z,15.84
2023-07-06T01:49:33.661Z,15.91
2023-07-06T01:50:33.682Z,15.80
2023-07-06T01:51:33.708Z,15.77
2023-07-06T01:52:33.723Z,15.81
2023-07-06T01:53:33.740Z,15.95
2023-07-06T01:54:33.714Z,15.64
2023-07-06T01:55:33.735Z,15.60
2023-07-06T01:56:33.740Z,15.78
2023-07-06T01:57:43.250Z,15.82
2023-07-06T01:58:34.802Z,15.82
2023-07-06T01:59:33.804Z,15.71
2023-07-06T02:00:33.930Z,15.64
2023-07-06T02:01:33.828Z,15.78
2023-07-06T02:02:33.979Z,15.74
2023-07-06T02:03:33.881Z,15.78
2023-07-06T02:04:33.948Z,15.77
2023-07-06T02:05:33.869Z,15.57
2023-07-06T02:06:33.884Z,15.71
2023-07-06T02:07:33.872Z,15.34
2023-07-06T02:08:33.900Z,15.61
2023-07-06T02:09:33.929Z,15.64
2023-07-06T02:10:33.902Z,15.75
2023-07-06T02:11:33.961Z,15.77
2023-07-06T02:12:34.048Z,15.81
2023-07-06T02:13:34.166Z,15.88
2023-07-06T02:14:34.193Z,15.88
2023-07-06T02:15:34.209Z,15.91
2023-07-06T02:16:34.321Z,15.84
2023-07-06T02:17:34.320Z,15.96
2023-07-06T02:18:34.327Z,15.96
2023-07-06T02:19:34.388Z,16.02
2023-07-06T02:20:34.402Z,16.06
2023-07-06T02:21:34.434Z,16.11
2023-07-06T02:22:34.470Z,16.13
2023-07-06T02:23:34.607Z,16.19
2023-07-06T02:24:34.707Z,16.23
2023-07-06T02:25:34.754Z,16.27
2023-07-06T02:26:34.816Z,16.24
2023-07-06T02:27:34.852Z,16.29
2023-07-06T02:28:34.904Z,16.34
2023-07-06T02:29:34.916Z,16.37
2023-07-06T02:30:35.083Z,16.33
2023-07-06T02:31:35.044Z,16.41
2023-07-06T02:32:35.234Z,16.46
2023-07-06T02:33:35.164Z,16.46
2023-07-06T02:34:35.171Z,16.51
2023-07-06T02:35:35.195Z,16.57
2023-07-06T02:36:35.217Z,16.60
2023-07-06T02:37:35.232Z,16.64
2023-07-06T02:38:35.521Z,16.71
2023-07-06T02:39:35.272Z,16.71
2023-07-06T02:40:35.307Z,16.72
2023-07-06T02:41:35.347Z,16.75
2023-07-06T02:42:35.486Z,16.75
2023-07-06T02:43:35.486Z,16.79
2023-07-06T02:44:35.524Z,16.84
2023-07-06T02:45:35.627Z,16.86
2023-07-06T02:46:35.651Z,16.88
2023-07-06T02:47:35.696Z,16.91
2023-07-06T02:48:35.735Z,16.92
2023-07-06T02:49:35.803Z,16.92
2023-07-06T02:50:35.853Z,16.92
2023-07-06T02:51:35.904Z,16.95
2023-07-06T02:52:35.972Z,16.92
2023-07-06T02:53:36.020Z,16.95
2023-07-06T02:54:36.049Z,16.92
2023-07-06T02:55:36.022Z,16.94
2023-07-06T02:56:36.030Z,16.92
2023-07-06T02:57:36.059Z,16.94
2023-07-06T02:58:36.095Z,16.92
2023-07-06T02:59:36.194Z,16.88
2023-07-06T03:00:36.217Z,16.72
2023-07-06T03:01:36.350Z,16.36
2023-07-06T03:02:36.372Z,16.37
2023-07-06T03:03:36.390Z,16.41
2023-07-06T03:04:36.451Z,16.30
2023-07-06T03:05:36.479Z,16.27
2023-07-06T03:06:36.425Z,16.30
2023-07-06T03:07:36.398Z,16.20
2023-07-06T03:08:36.424Z,16.22
2023-07-06T03:09:36.432Z,16.22
2023-07-06T03:10:36.428Z,16.19
2023-07-06T03:11:36.425Z,16.23
2023-07-06T03:12:36.429Z,16.24
2023-07-06T03:13:36.484Z,16.27
2023-07-06T03:14:36.458Z,16.24
2023-07-06T03:15:36.453Z,16.17
2023-07-06T03:16:36.549Z,16.19
2023-07-06T03:17:36.611Z,16.11
2023-07-06T03:18:36.626Z,16.12
2023-07-06T03:19:36.666Z,16.11
2023-07-06T03:20:36.716Z,16.01
2023-07-06T03:21:36.740Z,15.89
2023-07-06T03:22:36.766Z,16.01
2023-07-06T03:23:36.809Z,16.02
2023-07-06T03:24:36.905Z,16.02
2023-07-06T03:25:36.959Z,16.01
2023-07-06T03:26:37.040Z,15.94
2023-07-06T03:27:36.996Z,15.91
2023-07-06T03:28:37.034Z,15.98
2023-07-06T03:29:37.118Z,16.02
2023-07-06T03:30:37.094Z,16.06
2023-07-06T03:31:37.239Z,15.77
2023-07-06T03:32:37.288Z,15.95
2023-07-06T03:33:37.302Z,15.92
2023-07-06T03:34:37.351Z,15.94
2023-07-06T03:35:37.390Z,15.95
2023-07-06T03:36:37.413Z,15.96
2023-07-06T03:37:37.475Z,16.01
2023-07-06T03:38:37.517Z,16.06
2023-07-06T03:39:37.604Z,16.08
2023-07-06T03:40:37.624Z,16.15
2023-07-06T03:41:37.628Z,16.16
2023-07-06T03:42:37.702Z,16.20
2023-07-06T03:43:37.774Z,16.26
2023-07-06T03:44:37.802Z,16.29
2023-07-06T03:45:37.802Z,16.33
2023-07-06T03:46:38.016Z,16.37
2023-07-06T03:47:37.865Z,16.37
2023-07-06T03:48:37.791Z,16.30
2023-07-06T03:49:37.784Z,16.37
2023-07-06T03:50:37.812Z,16.39
2023-07-06T03:51:37.816Z,16.29
2023-07-06T03:52:37.785Z,16.43
2023-07-06T03:53:37.782Z,16.47
2023-07-06T03:54:37.796Z,16.56
2023-07-06T03:55:37.791Z,16.58
2023-07-06T03:56:37.802Z,16.56
2023-07-06T03:57:42.298Z,16.63
2023-07-06T03:58:38.803Z,16.67
2023-07-06T03:59:37.790Z,16.70
2023-07-06T04:00:37.821Z,16.74
2023-07-06T04:01:37.965Z,16.77
2023-07-06T04:02:37.850Z,16.75
2023-07-06T04:03:37.837Z,16.82
2023-07-06T04:04:37.807Z,16.64
2023-07-06T04:05:37.979Z,16.81
2023-07-06T04:06:37.798Z,16.74
2023-07-06T04:07:37.798Z,16.70
2023-07-06T04:08:37.788Z,16.60
2023-07-06T04:09:37.813Z,16.67
2023-07-06T04:10:37.804Z,16.66
2023-07-06T04:11:37.788Z,16.54
2023-07-06T04:12:37.856Z,16.49
2023-07-06T04:13:37.959Z,16.61
2023-07-06T04:14:37.866Z,16.64
2023-07-06T04:15:37.860Z,16.70
2023-07-06T04:16:37.945Z,16.70
2023-07-06T04:17:37.918Z,16.67
2023-07-06T04:18:37.878Z,16.71
2023-07-06T04:19:37.889Z,16.74
2023-07-06T04:20:37.901Z,16.75
2023-07-06T04:21:37.900Z,16.66
2023-07-06T04:22:37.896Z,16.49
2023-07-06T04:23:37.910Z,16.60
2023-07-06T04:24:37.928Z,16.57
2023-07-06T04:25:37.898Z,16.61
2023-07-06T04:26:37.902Z,16.63
2023-07-06T04:27:37.902Z,16.46
2023-07-06T04:28:37.919Z,16.64
2023-07-06T04:29:37.935Z,16.71
2023-07-06T04:30:37.937Z,16.78
2023-07-06T04:31:38.088Z,16.84
2023-07-06T04:32:37.989Z,16.85
2023-07-06T04:33:37.980Z,16.77
2023-07-06T04:34:38.062Z,16.53
2023-07-06T04:35:40.319Z,16.50
2023-07-06T04:36:38.239Z,16.34
2023-07-06T04:37:38.275Z,16.49
2023-07-06T04:38:38.343Z,16.53
2023-07-06T04:39:38.396Z,16.54
2023-07-06T04:40:38.432Z,16.67
2023-07-06T04:41:38.579Z,16.63
2023-07-06T04:42:38.521Z,16.75
2023-07-06T04:43:38.579Z,16.82
2023-07-06T04:44:38.655Z,16.91
2023-07-06T04:45:38.667Z,17.03
2023-07-06T04:46:38.763Z,17.12
2023-07-06T04:47:38.787Z,17.19
2023-07-06T04:48:38.800Z,17.26
2023-07-06T04:49:38.861Z,17.37
2023-07-06T04:50:39.076Z,17.41
2023-07-06T04:51:38.928Z,17.48
2023-07-06T04:52:38.922Z,17.58
2023-07-06T04:53:38.985Z,17.58
2023-07-06T04:54:39.043Z,17.47
2023-07-06T04:55:39.123Z,17.25
2023-07-06T04:56:39.137Z,17.31
2023-07-06T04:57:39.182Z,17.25
2023-07-06T04:58:39.230Z,17.36
2023-07-06T04:59:39.288Z,17.27
2023-07-06T05:00:39.267Z,17.41
2023-07-06T05:01:39.303Z,17.46
2023-07-06T05:02:39.346Z,17.41
2023-07-06T05:03:39.406Z,17.53
2023-07-06T05:04:39.428Z,17.43
2023-07-06T05:05:39.480Z,17.36
2023-07-06T05:06:39.481Z,17.44
2023-07-06T05:07:39.503Z,17.46
2023-07-06T05:08:39.489Z,17.43
2023-07-06T05:09:39.490Z,17.63
2023-07-06T05:10:39.559Z,17.63
2023-07-06T05:11:39.423Z,17.73
2023-07-06T05:12:39.404Z,17.71
2023-07-06T05:13:39.430Z,17.88
2023-07-06T05:14:39.383Z,17.89
2023-07-06T05:15:39.405Z,17.80
2023-07-06T05:16:39.417Z,17.86
2023-07-06T05:17:39.376Z,17.65
2023-07-06T05:18:39.347Z,17.86
2023-07-06T05:19:39.348Z,17.95
2023-07-06T05:20:39.425Z,17.95
2023-07-06T05:21:39.332Z,17.96
2023-07-06T05:22:39.326Z,18.06
2023-07-06T05:23:39.319Z,18.12
2023-07-06T05:24:39.367Z,18.13
2023-07-06T05:25:39.323Z,18.17
2023-07-06T05:26:39.907Z,18.29
2023-07-06T05:27:39.427Z,18.30
2023-07-06T05:28:39.364Z,18.37
2023-07-06T05:29:39.616Z,18.46
2023-07-06T05:30:39.345Z,18.30
2023-07-06T05:31:39.326Z,18.37
2023-07-06T05:32:39.334Z,18.47
2023-07-06T05:33:39.296Z,18.37
2023-07-06T05:34:39.516Z,18.39
2023-07-06T05:35:39.268Z,18.46
2023-07-06T05:36:39.386Z,18.48
2023-07-06T05:37:39.288Z,18.48
2023-07-06T05:38:39.268Z,18.37
2023-07-06T05:39:39.231Z,18.47
2023-07-06T05:40:39.186Z,18.50
2023-07-06T05:41:39.202Z,18.54
2023-07-06T05:42:39.934Z,18.63
2023-07-06T05:43:39.176Z,18.71
2023-07-06T05:44:39.436Z,18.85
2023-07-06T05:45:39.155Z,18.94
2023-07-06T05:46:39.166Z,19.02
2023-07-06T05:47:39.171Z,19.12
2023-07-06T05:48:39.159Z,19.22
2023-07-06T05:49:39.215Z,19.26
2023-07-06T05:50:39.238Z,19.30
2023-07-06T05:51:39.264Z,19.30
2023-07-06T05:52:39.324Z,19.33
2023-07-06T05:53:39.342Z,19.34
2023-07-06T05:54:39.372Z,19.34
2023-07-06T05:55:39.403Z,19.38
2023-07-06T05:56:39.443Z,19.40
2023-07-06T05:57:39.475Z,19.52
2023-07-06T05:58:39.559Z,19.54
2023-07-06T05:59:39.551Z,19.58
2023-07-06T06:00:39.547Z,19.64
2023-07-06T06:01:39.643Z,19.63
2023-07-06T06:02:39.703Z,19.68
2023-07-06T06:03:40.474Z,19.72
2023-07-06T06:04:39.915Z,19.64
2023-07-06T06:05:39.696Z,19.36
2023-07-06T06:06:39.690Z,19.38
2023-07-06T06:07:40.449Z,19.50
2023-07-06T06:08:39.638Z,19.60
2023-07-06T06:09:39.604Z,19.68
2023-07-06T06:10:39.642Z,19.75
2023-07-06T06:11:39.564Z,19.80
2023-07-06T06:12:39.581Z,19.81
2023-07-06T06:13:39.569Z,19.81
2023-07-06T06:14:39.531Z,19.85
2023-07-06T06:15:39.511Z,19.74
2023-07-06T06:16:39.492Z,19.72
2023-07-06T06:17:39.548Z,19.81
2023-07-06T06:18:41.216Z,19.81
2023-07-06T06:19:39.410Z,19.82
2023-07-06T06:20:39.380Z,19.85
2023-07-06T06:21:39.378Z,19.85
2023-07-06T06:22:39.379Z,19.92
2023-07-06T06:23:39.312Z,19.93
2023-07-06T06:24:39.279Z,19.95
2023-07-06T06:25:39.274Z,20.02
2023-07-06T06:26:39.214Z,20.08
2023-07-06T06:27:39.208Z,20.12
2023-07-06T06:28:39.174Z,20.12
2023-07-06T06:29:39.444Z,20.13
2023-07-06T06:30:39.125Z,20.11
2023-07-06T06:31:39.134Z,19.95
2023-07-06T06:32:39.160Z,19.98
2023-07-06T06:33:39.093Z,19.95
2023-07-06T06:34:39.181Z,19.82
2023-07-06T06:35:39.942Z,19.99
2023-07-06T06:36:39.481Z,20.08
2023-07-06T06:37:39.087Z,20.13
2023-07-06T06:38:38.981Z,20.17
2023-07-06T06:39:39.030Z,20.22
2023-07-06T06:40:38.950Z,20.19
2023-07-06T06:41:38.916Z,20.19
2023-07-06T06:42:38.861Z,20.33
2023-07-06T06:43:38.829Z,20.46
2023-07-06T06:44:38.798Z,20.58
2023-07-06T06:45:38.769Z,20.66
2023-07-06T06:46:38.810Z,20.70
2023-07-06T06:47:38.729Z,20.51
2023-07-06T06:48:38.670Z,20.33
2023-07-06T06:49:38.964Z,20.27
2023-07-06T06:50:38.586Z,20.23
2023-07-06T06:51:38.550Z,20.37
2023-07-06T06:52:38.574Z,20.05
2023-07-06T06:53:38.484Z,19.92
2023-07-06T06:54:39.458Z,19.85
2023-07-06T06:55:38.421Z,20.19
2023-07-06T06:56:38.423Z,20.26
2023-07-06T06:57:38.375Z,20.37
2023-07-06T06:58:38.389Z,20.42
2023-07-06T06:59:38.318Z,20.40
2023-07-06T07:00:38.279Z,20.53
2023-07-06T07:01:38.274Z,20.77
2023-07-06T07:02:38.266Z,20.96
2023-07-06T07:03:38.252Z,21.03
2023-07-06T07:04:38.185Z,21.18
2023-07-06T07:05:38.167Z,20.78
2023-07-06T07:06:38.118Z,20.81
2023-07-06T07:07:38.084Z,20.81
2023-07-06T07:08:38.973Z,20.88
2023-07-06T07:09:38.134Z,21.10
2023-07-06T07:10:38.207Z,21.18
2023-07-06T07:11:38.105Z,21.15
2023-07-06T07:12:38.134Z,20.84
2023-07-06T07:13:38.226Z,20.92
2023-07-06T07:14:38.977Z,20.75
2023-07-06T07:15:38.162Z,20.74
2023-07-06T07:16:38.243Z,20.82
2023-07-06T07:17:38.297Z,20.82
2023-07-06T07:18:38.991Z,20.74
2023-07-06T07:19:38.537Z,20.70
2023-07-06T07:20:38.181Z,20.71
2023-07-06T07:21:38.168Z,20.77
2023-07-06T07:22:38.179Z,20.72
2023-07-06T07:23:38.167Z,20.72
2023-07-06T07:24:38.261Z,20.79
2023-07-06T07:25:38.152Z,20.33
2023-07-06T07:26:38.176Z,20.48
2023-07-06T07:27:38.162Z,20.29
2023-07-06T07:28:38.154Z,20.05
2023-07-06T07:29:38.089Z,19.81
2023-07-06T07:30:38.023Z,19.61
2023-07-06T07:31:38.007Z,18.94
2023-07-06T07:32:37.934Z,19.08
2023-07-06T07:33:37.937Z,19.29
2023-07-06T07:34:37.897Z,19.15
2023-07-06T07:35:37.836Z,19.40
2023-07-06T07:36:37.970Z,19.38
2023-07-06T07:37:37.890Z,19.09
2023-07-06T07:38:37.729Z,18.75
2023-07-06T07:39:37.730Z,18.92
2023-07-06T07:40:37.699Z,19.02
2023-07-06T07:41:37.698Z,18.63
2023-07-06T07:42:37.652Z,18.46
2023-07-06T07:43:37.648Z,18.32
2023-07-06T07:44:37.613Z,18.60
2023-07-06T07:45:37.680Z,18.53
2023-07-06T07:46:37.739Z,18.63
2023-07-06T07:47:37.621Z,18.58
2023-07-06T07:48:37.613Z,18.63
2023-07-06T07:49:37.967Z,18.44
2023-07-06T07:50:37.626Z,18.27
2023-07-06T07:51:37.655Z,18.39
2023-07-06T07:52:37.619Z,18.39
2023-07-06T07:53:40.106Z,18.16
2023-07-06T07:54:37.707Z,18.30
2023-07-06T07:55:37.651Z,18.10
2023-07-06T07:56:37.827Z,18.20
2023-07-06T07:57:37.635Z,18.27
2023-07-06T07:58:37.992Z,18.10
2023-07-06T07:59:37.696Z,18.02
2023-07-06T08:00:38.647Z,17.82
2023-07-06T08:01:38.707Z,17.96
2023-07-06T08:02:37.927Z,17.84
2023-07-06T08:03:38.860Z,17.73
2023-07-06T08:04:40.199Z,17.74
2023-07-06T08:05:37.658Z,17.84
2023-07-06T08:06:37.646Z,17.88
2023-07-06T08:07:37.657Z,17.92
2023-07-06T08:08:38.471Z,17.92
2023-07-06T08:09:37.682Z,18.03
2023-07-06T08:10:37.673Z,18.26
2023-07-06T08:11:37.657Z,18.48
2023-07-06T08:12:37.733Z,18.54
2023-07-06T08:13:37.686Z,18.10
2023-07-06T08:14:37.655Z,18.55
2023-07-06T08:15:37.740Z,18.78
2023-07-06T08:16:37.701Z,18.53
2023-07-06T08:17:37.650Z,18.50
2023-07-06T08:18:37.669Z,19.08
2023-07-06T08:19:55.145Z,19.36
2023-07-06T08:21:08.794Z,19.68
2023-07-06T08:22:38.596Z,20.42
2023-07-06T08:23:37.602Z,20.85
2023-07-06T08:24:37.544Z,21.16
2023-07-06T08:25:37.521Z,21.53
2023-07-06T08:26:37.535Z,21.73
2023-07-06T08:27:37.452Z,21.78
2023-07-06T08:28:37.414Z,21.94
2023-07-06T08:29:37.387Z,22.28
2023-07-06T08:30:37.356Z,22.20
2023-07-06T08:31:37.399Z,22.15
2023-07-06T08:32:37.362Z,22.17
2023-07-06T08:33:37.255Z,22.17
2023-07-06T08:34:37.430Z,22.12
2023-07-06T08:35:37.143Z,22.50
2023-07-06T08:36:37.972Z,22.85
2023-07-06T08:37:37.019Z,23.10
2023-07-06T08:38:37.021Z,23.16
2023-07-06T08:39:36.989Z,23.36
2023-07-06T08:40:36.888Z,23.58
2023-07-06T08:41:36.846Z,23.74
2023-07-06T08:42:36.784Z,23.82
2023-07-06T08:43:36.714Z,24.09
2023-07-06T08:44:36.743Z,23.84
2023-07-06T08:45:36.618Z,23.60
2023-07-06T08:46:36.612Z,24.33
2023-07-06T08:47:36.548Z,24.74
2023-07-06T08:48:36.483Z,25.09
2023-07-06T08:49:36.373Z,25.44
2023-07-06T08:50:36.333Z,25.76
2023-07-06T08:51:36.215Z,26.08
2023-07-06T08:52:36.118Z,26.40
2023-07-06T08:53:36.047Z,25.89
2023-07-06T08:54:36.046Z,26.43
2023-07-06T08:55:35.882Z,26.53
2023-07-06T08:56:35.853Z,26.64
2023-07-06T08:57:35.749Z,25.96
2023-07-06T08:58:35.688Z,25.37
2023-07-06T08:59:35.646Z,25.81
2023-07-06T09:00:35.584Z,25.85
2023-07-06T09:01:35.564Z,26.02
2023-07-06T09:02:35.553Z,25.89
2023-07-06T09:03:35.542Z,25.46
2023-07-06T09:04:35.449Z,25.18
2023-07-06T09:05:35.389Z,25.29
2023-07-06T09:06:35.322Z,25.46
2023-07-06T09:07:35.250Z,25.49
2023-07-06T09:08:35.246Z,25.30
2023-07-06T09:09:35.231Z,25.49
2023-07-06T09:10:35.120Z,25.12
2023-07-06T09:11:38.382Z,24.53
2023-07-06T09:12:34.985Z,24.56
2023-07-06T09:13:34.916Z,24.72
2023-07-06T09:14:34.817Z,24.82
2023-07-06T09:15:37.689Z,24.63
2023-07-06T09:16:34.656Z,24.79
2023-07-06T09:17:35.608Z,24.85
2023-07-06T09:18:34.517Z,24.51
2023-07-06T09:19:36.583Z,24.53
2023-07-06T09:20:35.000Z,24.68
2023-07-06T09:21:34.318Z,24.85
2023-07-06T09:22:34.329Z,24.87
2023-07-06T09:23:34.365Z,24.89
2023-07-06T09:24:34.051Z,25.02
2023-07-06T09:25:33.986Z,25.12
2023-07-06T09:26:34.343Z,25.09
2023-07-06T09:27:34.586Z,25.19
2023-07-06T09:28:33.850Z,25.04
2023-07-06T09:29:35.585Z,25.23
2023-07-06T09:30:34.567Z,25.25
2023-07-06T09:31:33.693Z,25.36
2023-07-06T09:32:33.753Z,25.60
2023-07-06T09:33:33.587Z,25.59
2023-07-06T09:34:33.613Z,25.57
2023-07-06T09:35:33.605Z,25.60
2023-07-06T09:36:33.508Z,25.60
2023-07-06T09:37:33.494Z,25.44
2023-07-06T09:38:33.851Z,25.53
2023-07-06T09:39:33.489Z,25.53
2023-07-06T09:40:33.979Z,25.61
2023-07-06T09:41:33.500Z,25.60
2023-07-06T09:42:34.105Z,25.46
2023-07-06T09:43:33.460Z,25.41
2023-07-06T09:44:33.365Z,25.56
2023-07-06T09:45:33.550Z,25.87
2023-07-06T09:46:33.329Z,26.11
2023-07-06T09:47:33.264Z,26.21
2023-07-06T09:48:33.190Z,26.25
2023-07-06T09:49:33.154Z,25.94
2023-07-06T09:50:33.120Z,26.08
2023-07-06T09:51:33.086Z,26.29
2023-07-06T09:52:33.047Z,26.16
2023-07-06T09:53:33.018Z,25.78
2023-07-06T09:54:32.878Z,25.92
2023-07-06T09:55:32.844Z,25.89
2023-07-06T09:56:32.718Z,26.26
2023-07-06T09:57:32.767Z,26.47
2023-07-06T09:58:33.563Z,26.68
2023-07-06T09:59:32.514Z,26.87
2023-07-06T10:00:32.431Z,26.97
2023-07-06T10:01:32.366Z,26.97
2023-07-06T10:02:32.276Z,27.08
2023-07-06T10:03:32.175Z,27.24
2023-07-06T10:04:32.101Z,27.32
2023-07-06T10:05:32.176Z,27.42
2023-07-06T10:06:32.014Z,27.32
2023-07-06T10:07:31.899Z,27.43
2023-07-06T10:08:31.917Z,27.68
2023-07-06T10:09:31.838Z,26.84
2023-07-06T10:10:31.912Z,27.24
2023-07-06T10:11:31.718Z,27.42
2023-07-06T10:12:31.673Z,27.67
2023-07-06T10:13:31.663Z,27.79
2023-07-06T10:14:31.567Z,27.92
2023-07-06T10:15:31.538Z,28.07
2023-07-06T10:16:31.490Z,28.23
2023-07-06T10:17:31.421Z,28.35
2023-07-06T10:18:31.329Z,28.38
2023-07-06T10:19:31.258Z,28.49
2023-07-06T10:20:31.267Z,28.60
2023-07-06T10:21:31.132Z,28.32
2023-07-06T10:22:31.100Z,28.02
2023-07-06T10:23:31.026Z,27.81
2023-07-06T10:24:31.015Z,27.70
2023-07-06T10:25:30.898Z,27.90
2023-07-06T10:26:30.812Z,27.95
2023-07-06T10:27:30.744Z,27.88
2023-07-06T10:28:30.731Z,27.91
2023-07-06T10:29:30.618Z,27.83
2023-07-06T10:30:30.618Z,27.80
2023-07-06T10:31:32.736Z,27.79
2023-07-06T10:32:30.625Z,27.77
2023-07-06T10:33:30.588Z,27.74
2023-07-06T10:34:30.604Z,27.73
2023-07-06T10:35:30.535Z,27.67
2023-07-06T10:36:30.446Z,27.68
2023-07-06T10:38:50.081Z,27.95
2023-07-06T10:39:49.423Z,27.99
2023-07-06T10:40:49.402Z,27.87
2023-07-06T10:41:49.411Z,27.95
2023-07-06T10:42:49.384Z,27.87
2023-07-06T10:43:49.395Z,27.67
2023-07-06T10:44:49.367Z,27.54
2023-07-06T10:45:49.443Z,27.56
2023-07-06T10:46:49.349Z,27.54
2023-07-06T10:47:49.397Z,27.46
2023-07-06T10:48:49.292Z,27.85
2023-07-06T10:49:49.320Z,27.88
2023-07-06T10:50:49.289Z,28.12
2023-07-06T10:51:49.246Z,28.11
2023-07-06T10:52:49.267Z,28.20
2023-07-06T10:53:49.239Z,28.38
2023-07-06T10:54:49.337Z,28.53
2023-07-06T10:55:49.214Z,28.71
2023-07-06T10:56:49.189Z,28.12
2023-07-06T10:57:49.194Z,28.52
2023-07-06T10:58:49.170Z,27.81
2023-07-06T10:59:49.138Z,28.64
2023-07-06T11:00:49.177Z,29.02
2023-07-06T11:01:49.256Z,28.93
2023-07-06T11:02:50.118Z,28.60
2023-07-06T11:03:49.193Z,28.56
2023-07-06T11:04:49.075Z,27.39
2023-07-06T11:05:49.090Z,27.91
2023-07-06T11:06:49.076Z,28.29
2023-07-06T11:07:49.037Z,28.84
2023-07-06T11:08:49.000Z,29.02
2023-07-06T11:09:49.026Z,29.42
2023-07-06T11:10:48.968Z,29.46
2023-07-06T11:11:48.952Z,29.67
2023-07-06T11:12:48.946Z,29.80
2023-07-06T11:13:48.966Z,30.04
2023-07-06T11:14:48.905Z,30.26
2023-07-06T11:15:48.971Z,29.87
2023-07-06T11:16:48.992Z,29.85
2023-07-06T11:17:48.910Z,28.66
2023-07-06T11:18:48.797Z,28.77
2023-07-06T11:19:48.753Z,29.01
2023-07-06T11:20:48.758Z,28.50
2023-07-06T11:21:48.727Z,28.43
2023-07-06T11:22:48.764Z,28.53
2023-07-06T11:23:48.677Z,28.18
2023-07-06T11:24:48.686Z,28.59
2023-07-06T11:25:48.649Z,28.64
2023-07-06T11:26:48.649Z,28.71
2023-07-06T11:27:48.701Z,28.60
2023-07-06T11:28:48.773Z,27.74
2023-07-06T11:29:48.734Z,28.11
2023-07-06T11:30:48.794Z,27.73
2023-07-06T11:31:49.039Z,27.15
2023-07-06T11:32:48.853Z,26.54
2023-07-06T11:33:48.861Z,26.53
2023-07-06T11:34:48.875Z,26.33
2023-07-06T11:35:48.890Z,26.54
2023-07-06T11:36:48.915Z,26.49
2023-07-06T11:37:58.427Z,26.26
2023-07-06T11:38:49.996Z,26.06
2023-07-06T11:39:49.035Z,25.78
2023-07-06T11:40:49.082Z,25.85
2023-07-06T11:41:49.055Z,25.46
2023-07-06T11:42:49.084Z,25.18
2023-07-06T11:43:49.094Z,24.29
2023-07-06T11:44:49.152Z,24.66
2023-07-06T11:45:49.183Z,24.27
2023-07-06T11:46:49.225Z,23.80
2023-07-06T11:47:49.488Z,23.32
2023-07-06T11:48:49.300Z,23.44
2023-07-06T11:49:49.313Z,23.37
2023-07-06T11:50:49.431Z,22.46
2023-07-06T11:51:49.437Z,22.01
2023-07-06T11:52:49.530Z,21.78
2023-07-06T11:53:49.547Z,21.49
2023-07-06T11:54:49.660Z,21.50
2023-07-06T11:55:49.776Z,21.61
2023-07-06T11:56:49.853Z,21.47
2023-07-06T11:57:49.956Z,21.39
2023-07-06T11:58:50.060Z,21.36
2023-07-06T11:59:50.170Z,21.40
2023-07-06T12:00:50.639Z,21.12
2023-07-06T12:01:50.354Z,20.55
2023-07-06T12:02:50.518Z,20.67
2023-07-06T12:03:50.602Z,20.85
2023-07-06T12:04:51.876Z,20.68
2023-07-06T12:05:52.205Z,21.25
2023-07-06T12:06:50.829Z,21.60
2023-07-06T12:07:50.919Z,21.74
2023-07-06T12:08:51.034Z,21.85
2023-07-06T12:09:51.171Z,21.32
2023-07-06T12:10:51.359Z,21.50
2023-07-06T12:11:51.385Z,21.57
2023-07-06T12:12:51.443Z,21.03
2023-07-06T12:13:51.569Z,21.41
2023-07-06T12:14:51.699Z,21.58
2023-07-06T12:15:51.728Z,21.88
2023-07-06T12:16:51.799Z,22.08
2023-07-06T12:17:51.879Z,21.91
2023-07-06T12:18:51.951Z,21.58
2023-07-06T12:19:52.042Z,21.44
2023-07-06T12:20:52.107Z,21.26
2023-07-06T12:21:52.188Z,21.03
2023-07-06T12:22:52.282Z,20.34
2023-07-06T12:23:52.332Z,20.47
2023-07-06T12:24:52.393Z,19.67
2023-07-06T12:25:52.500Z,19.68
2023-07-06T12:26:52.567Z,19.95
2023-07-06T12:27:52.601Z,19.29
2023-07-06T12:28:54.679Z,19.31
2023-07-06T12:29:52.762Z,19.02
2023-07-06T12:30:52.875Z,19.52
2023-07-06T12:31:52.970Z,19.56
2023-07-06T12:32:53.037Z,19.37
2023-07-06T12:33:53.223Z,19.64
2023-07-06T12:34:53.305Z,19.78
2023-07-06T12:35:53.418Z,19.92
2023-07-06T12:36:53.503Z,20.17
2023-07-06T12:37:53.613Z,20.34
2023-07-06T12:38:54.139Z,20.60
2023-07-06T12:39:53.810Z,20.79
2023-07-06T12:40:54.202Z,20.96
2023-07-06T12:41:53.987Z,21.13
2023-07-06T12:42:54.068Z,21.25
2023-07-06T12:43:54.127Z,21.39
2023-07-06T12:44:54.227Z,21.39
2023-07-06T12:45:54.419Z,20.87
2023-07-06T12:46:54.502Z,20.75
2023-07-06T12:47:54.525Z,20.77
2023-07-06T12:48:54.840Z,20.81
2023-07-06T12:49:57.613Z,20.91
2023-07-06T12:50:54.745Z,20.85
2023-07-06T12:51:54.811Z,20.68
2023-07-06T12:52:54.855Z,20.87
2023-07-06T12:53:54.936Z,21.03
2023-07-06T12:54:54.967Z,21.29